sensor_id;sensor_type;location;lat;lon;timestamp;P1;durP1;ratioP1;P2;durP2;ratioP2
7444;SDS011;3764;48.126;11.594;2023-11-19T00:01:34;5.35;;;3.13;;
7444;SDS011;3764;48.126;11.594;2023-11-19T00:04:01;2.50;;;2.30;;
7444;SDS011;3764;48.126;11.594;2023-11-19T00:06:30;3.15;;;2.85;;
7444;SDS011;3764;48.126;11.594;2023-11-19T00:08:57;2.92;;;2.67;;
7444;SDS011;3764;48.126;11.594;2023-11-19T00:11:25;5.88;;;2.72;;
7444;SDS011;3764;48.126;11.594;2023-11-19T00:13:52;2.65;;;2.45;;
7444;SDS011;3764;48.126;11.594;2023-11-19T00:16:21;3.40;;;2.90;;
7444;SDS011;3764;48.126;11.594;2023-11-19T00:18:48;2.72;;;2.53;;
7444;SDS011;3764;48.126;11.594;2023-11-19T00:21:16;3.72;;;3.22;;
7444;SDS011;3764;48.126;11.594;2023-11-19T00:23:43;3.72;;;3.17;;
7444;SDS011;3764;48.126;11.594;2023-11-19T00:26:10;3.22;;;2.88;;
7444;SDS011;3764;48.126;11.594;2023-11-19T00:28:39;3.55;;;3.25;;
7444;SDS011;3764;48.126;11.594;2023-11-19T00:31:06;3.03;;;2.70;;
7444;SDS011;3764;48.126;11.594;2023-11-19T00:33:35;4.90;;;3.05;;
7444;SDS011;3764;48.126;11.594;2023-11-19T00:36:03;2.92;;;2.63;;
7444;SDS011;3764;48.126;11.594;2023-11-19T00:38:30;4.70;;;3.40;;
7444;SDS011;3764;48.126;11.594;2023-11-19T00:40:57;3.40;;;3.10;;
7444;SDS011;3764;48.126;11.594;2023-11-19T00:43:24;3.20;;;2.90;;
7444;SDS011;3764;48.126;11.594;2023-11-19T00:45:52;4.68;;;2.90;;
7444;SDS011;3764;48.126;11.594;2023-11-19T00:48:19;3.10;;;2.30;;
7444;SDS011;3764;48.126;11.594;2023-11-19T00:50:48;3.88;;;2.95;;
7444;SDS011;3764;48.126;11.594;2023-11-19T00:53:15;3.10;;;2.80;;
7444;SDS011;3764;48.126;11.594;2023-11-19T00:55:42;3.28;;;2.88;;
7444;SDS011;3764;48.126;11.594;2023-11-19T00:58:09;2.65;;;2.45;;
7444;SDS011;3764;48.126;11.594;2023-11-19T01:00:36;5.70;;;2.65;;
7444;SDS011;3764;48.126;11.594;2023-11-19T01:03:03;3.35;;;2.60;;
7444;SDS011;3764;48.126;11.594;2023-11-19T01:05:32;4.47;;;2.78;;
7444;SDS011;3764;48.126;11.594;2023-11-19T01:08:00;3.35;;;2.55;;
7444;SDS011;3764;48.126;11.594;2023-11-19T01:10:29;3.25;;;2.70;;
7444;SDS011;3764;48.126;11.594;2023-11-19T01:12:57;4.30;;;2.83;;
7444;SDS011;3764;48.126;11.594;2023-11-19T01:15:24;3.70;;;2.90;;
7444;SDS011;3764;48.126;11.594;2023-11-19T01:17:52;2.95;;;2.58;;
7444;SDS011;3764;48.126;11.594;2023-11-19T01:20:19;3.25;;;2.63;;
7444;SDS011;3764;48.126;11.594;2023-11-19T01:22:46;2.88;;;2.28;;
7444;SDS011;3764;48.126;11.594;2023-11-19T01:25:16;3.15;;;2.25;;
7444;SDS011;3764;48.126;11.594;2023-11-19T01:27:43;2.60;;;2.30;;
7444;SDS011;3764;48.126;11.594;2023-11-19T01:30:10;3.30;;;2.30;;
7444;SDS011;3764;48.126;11.594;2023-11-19T01:32:38;3.33;;;2.90;;
7444;SDS011;3764;48.126;11.594;2023-11-19T01:35:06;3.03;;;1.90;;
7444;SDS011;3764;48.126;11.594;2023-11-19T01:37:34;1.90;;;1.80;;
7444;SDS011;3764;48.126;11.594;2023-11-19T01:40:01;2.58;;;2.38;;
7444;SDS011;3764;48.126;11.594;2023-11-19T01:42:31;2.88;;;2.33;;
7444;SDS011;3764;48.126;11.594;2023-11-19T01:45:03;2.38;;;1.80;;
7444;SDS011;3764;48.126;11.594;2023-11-19T01:47:33;2.20;;;1.85;;
7444;SDS011;3764;48.126;11.594;2023-11-19T01:50:01;2.15;;;2.05;;
7444;SDS011;3764;48.126;11.594;2023-11-19T01:52:31;2.15;;;1.95;;
7444;SDS011;3764;48.126;11.594;2023-11-19T01:55:00;2.25;;;1.98;;
7444;SDS011;3764;48.126;11.594;2023-11-19T01:57:28;2.63;;;2.00;;
7444;SDS011;3764;48.126;11.594;2023-11-19T01:59:57;2.28;;;1.75;;
7444;SDS011;3764;48.126;11.594;2023-11-19T02:02:25;4.15;;;1.70;;
7444;SDS011;3764;48.126;11.594;2023-11-19T02:04:52;1.65;;;1.50;;
7444;SDS011;3764;48.126;11.594;2023-11-19T02:07:19;3.72;;;2.20;;
7444;SDS011;3764;48.126;11.594;2023-11-19T02:09:46;2.03;;;1.40;;
7444;SDS011;3764;48.126;11.594;2023-11-19T02:12:13;2.45;;;1.83;;
7444;SDS011;3764;48.126;11.594;2023-11-19T02:14:41;1.90;;;1.75;;
7444;SDS011;3764;48.126;11.594;2023-11-19T02:19:53;2.80;;;2.33;;
7444;SDS011;3764;48.126;11.594;2023-11-19T02:22:21;3.20;;;2.17;;
7444;SDS011;3764;48.126;11.594;2023-11-19T02:24:48;2.22;;;2.00;;
7444;SDS011;3764;48.126;11.594;2023-11-19T02:27:21;2.20;;;2.00;;
7444;SDS011;3764;48.126;11.594;2023-11-19T02:29:58;2.40;;;1.98;;
7444;SDS011;3764;48.126;11.594;2023-11-19T02:32:27;1.95;;;1.80;;
7444;SDS011;3764;48.126;11.594;2023-11-19T02:34:56;2.78;;;2.15;;
7444;SDS011;3764;48.126;11.594;2023-11-19T02:37:23;1.70;;;1.60;;
7444;SDS011;3764;48.126;11.594;2023-11-19T02:39:51;2.00;;;1.80;;
7444;SDS011;3764;48.126;11.594;2023-11-19T02:42:18;2.88;;;1.90;;
7444;SDS011;3764;48.126;11.594;2023-11-19T02:44:45;2.45;;;1.65;;
7444;SDS011;3764;48.126;11.594;2023-11-19T02:47:15;1.90;;;1.70;;
7444;SDS011;3764;48.126;11.594;2023-11-19T02:49:42;2.90;;;1.60;;
7444;SDS011;3764;48.126;11.594;2023-11-19T02:52:09;2.00;;;1.77;;
7444;SDS011;3764;48.126;11.594;2023-11-19T02:54:37;2.38;;;1.70;;
7444;SDS011;3764;48.126;11.594;2023-11-19T02:57:04;2.25;;;1.73;;
7444;SDS011;3764;48.126;11.594;2023-11-19T02:59:35;2.03;;;1.83;;
7444;SDS011;3764;48.126;11.594;2023-11-19T03:02:06;2.58;;;1.88;;
7444;SDS011;3764;48.126;11.594;2023-11-19T03:04:38;3.08;;;1.77;;
7444;SDS011;3764;48.126;11.594;2023-11-19T03:07:05;1.90;;;1.60;;
7444;SDS011;3764;48.126;11.594;2023-11-19T03:09:33;2.05;;;1.67;;
7444;SDS011;3764;48.126;11.594;2023-11-19T03:12:01;2.00;;;1.80;;
7444;SDS011;3764;48.126;11.594;2023-11-19T03:14:32;2.25;;;1.70;;
7444;SDS011;3764;48.126;11.594;2023-11-19T03:17:00;1.67;;;1.58;;
7444;SDS011;3764;48.126;11.594;2023-11-19T03:19:28;2.78;;;1.70;;
7444;SDS011;3764;48.126;11.594;2023-11-19T03:21:56;1.85;;;1.65;;
7444;SDS011;3764;48.126;11.594;2023-11-19T03:24:25;2.40;;;1.85;;
7444;SDS011;3764;48.126;11.594;2023-11-19T03:26:52;2.40;;;2.20;;
7444;SDS011;3764;48.126;11.594;2023-11-19T03:29:20;1.45;;;1.35;;
7444;SDS011;3764;48.126;11.594;2023-11-19T03:31:48;2.05;;;1.75;;
7444;SDS011;3764;48.126;11.594;2023-11-19T03:34:15;1.40;;;1.30;;
7444;SDS011;3764;48.126;11.594;2023-11-19T03:36:42;1.75;;;1.50;;
7444;SDS011;3764;48.126;11.594;2023-11-19T03:39:10;1.60;;;1.38;;
7444;SDS011;3764;48.126;11.594;2023-11-19T03:41:38;1.42;;;1.33;;
7444;SDS011;3764;48.126;11.594;2023-11-19T03:44:05;1.95;;;1.60;;
7444;SDS011;3764;48.126;11.594;2023-11-19T03:46:32;1.73;;;1.63;;
7444;SDS011;3764;48.126;11.594;2023-11-19T03:49:00;1.60;;;1.50;;
7444;SDS011;3764;48.126;11.594;2023-11-19T03:51:29;2.08;;;1.88;;
7444;SDS011;3764;48.126;11.594;2023-11-19T03:53:56;1.52;;;1.42;;
7444;SDS011;3764;48.126;11.594;2023-11-19T03:56:25;2.15;;;1.30;;
7444;SDS011;3764;48.126;11.594;2023-11-19T03:58:53;1.50;;;1.40;;
7444;SDS011;3764;48.126;11.594;2023-11-19T04:01:20;1.70;;;1.60;;
7444;SDS011;3764;48.126;11.594;2023-11-19T04:03:47;1.63;;;1.48;;
7444;SDS011;3764;48.126;11.594;2023-11-19T04:06:14;1.70;;;1.60;;
7444;SDS011;3764;48.126;11.594;2023-11-19T04:08:42;2.22;;;1.48;;
7444;SDS011;3764;48.126;11.594;2023-11-19T04:11:10;2.63;;;1.80;;
7444;SDS011;3764;48.126;11.594;2023-11-19T04:13:38;1.33;;;1.08;;
7444;SDS011;3764;48.126;11.594;2023-11-19T04:16:05;1.60;;;1.40;;
7444;SDS011;3764;48.126;11.594;2023-11-19T04:18:33;1.30;;;1.20;;
7444;SDS011;3764;48.126;11.594;2023-11-19T04:21:01;4.40;;;1.55;;
7444;SDS011;3764;48.126;11.594;2023-11-19T04:23:28;2.90;;;1.20;;
7444;SDS011;3764;48.126;11.594;2023-11-19T04:25:55;1.55;;;1.27;;
7444;SDS011;3764;48.126;11.594;2023-11-19T04:28:22;1.75;;;1.23;;
7444;SDS011;3764;48.126;11.594;2023-11-19T04:30:53;1.45;;;1.35;;
7444;SDS011;3764;48.126;11.594;2023-11-19T04:33:21;2.53;;;2.10;;
7444;SDS011;3764;48.126;11.594;2023-11-19T04:35:48;2.38;;;1.45;;
7444;SDS011;3764;48.126;11.594;2023-11-19T04:38:15;1.23;;;0.90;;
7444;SDS011;3764;48.126;11.594;2023-11-19T04:40:42;1.45;;;0.90;;
7444;SDS011;3764;48.126;11.594;2023-11-19T04:43:09;1.20;;;0.98;;
7444;SDS011;3764;48.126;11.594;2023-11-19T04:45:36;1.20;;;1.10;;
7444;SDS011;3764;48.126;11.594;2023-11-19T04:48:06;1.10;;;0.80;;
7444;SDS011;3764;48.126;11.594;2023-11-19T04:50:34;1.50;;;1.10;;
7444;SDS011;3764;48.126;11.594;2023-11-19T04:53:01;1.05;;;0.90;;
7444;SDS011;3764;48.126;11.594;2023-11-19T04:55:28;1.42;;;1.10;;
7444;SDS011;3764;48.126;11.594;2023-11-19T04:57:56;1.52;;;0.90;;
7444;SDS011;3764;48.126;11.594;2023-11-19T05:00:23;2.40;;;1.10;;
7444;SDS011;3764;48.126;11.594;2023-11-19T05:02:51;1.48;;;1.13;;
7444;SDS011;3764;48.126;11.594;2023-11-19T05:05:19;1.00;;;0.75;;
7444;SDS011;3764;48.126;11.594;2023-11-19T05:07:46;1.05;;;0.75;;
7444;SDS011;3764;48.126;11.594;2023-11-19T05:10:14;0.90;;;0.70;;
7444;SDS011;3764;48.126;11.594;2023-11-19T05:12:41;0.80;;;0.70;;
7444;SDS011;3764;48.126;11.594;2023-11-19T05:15:09;0.80;;;0.70;;
7444;SDS011;3764;48.126;11.594;2023-11-19T05:17:37;1.00;;;0.85;;
7444;SDS011;3764;48.126;11.594;2023-11-19T05:20:05;0.90;;;0.73;;
7444;SDS011;3764;48.126;11.594;2023-11-19T05:22:40;1.35;;;0.80;;
7444;SDS011;3764;48.126;11.594;2023-11-19T05:25:07;0.98;;;0.80;;
7444;SDS011;3764;48.126;11.594;2023-11-19T05:27:35;1.17;;;0.88;;
7444;SDS011;3764;48.126;11.594;2023-11-19T05:30:03;2.97;;;0.70;;
7444;SDS011;3764;48.126;11.594;2023-11-19T05:32:33;1.00;;;0.70;;
7444;SDS011;3764;48.126;11.594;2023-11-19T05:35:00;1.08;;;0.88;;
7444;SDS011;3764;48.126;11.594;2023-11-19T05:37:27;1.17;;;0.70;;
7444;SDS011;3764;48.126;11.594;2023-11-19T05:39:56;0.90;;;0.80;;
7444;SDS011;3764;48.126;11.594;2023-11-19T05:42:25;1.00;;;0.70;;
7444;SDS011;3764;48.126;11.594;2023-11-19T05:44:52;1.23;;;0.70;;
7444;SDS011;3764;48.126;11.594;2023-11-19T05:47:19;1.63;;;1.05;;
7444;SDS011;3764;48.126;11.594;2023-11-19T05:49:47;1.42;;;0.77;;
7444;SDS011;3764;48.126;11.594;2023-11-19T05:52:14;1.10;;;0.77;;
7444;SDS011;3764;48.126;11.594;2023-11-19T05:54:41;2.85;;;0.90;;
7444;SDS011;3764;48.126;11.594;2023-11-19T05:57:10;1.00;;;0.88;;
7444;SDS011;3764;48.126;11.594;2023-11-19T05:59:39;0.90;;;0.73;;
7444;SDS011;3764;48.126;11.594;2023-11-19T06:02:06;0.90;;;0.80;;
7444;SDS011;3764;48.126;11.594;2023-11-19T06:04:33;3.17;;;0.90;;
7444;SDS011;3764;48.126;11.594;2023-11-19T06:07:00;1.73;;;0.70;;
7444;SDS011;3764;48.126;11.594;2023-11-19T06:09:27;0.98;;;0.60;;
7444;SDS011;3764;48.126;11.594;2023-11-19T06:11:54;1.58;;;1.00;;
7444;SDS011;3764;48.126;11.594;2023-11-19T06:14:24;0.90;;;0.80;;
7444;SDS011;3764;48.126;11.594;2023-11-19T06:16:51;3.28;;;0.80;;
7444;SDS011;3764;48.126;11.594;2023-11-19T06:19:18;1.00;;;0.80;;
7444;SDS011;3764;48.126;11.594;2023-11-19T06:21:45;0.80;;;0.65;;
7444;SDS011;3764;48.126;11.594;2023-11-19T06:24:12;1.10;;;0.70;;
7444;SDS011;3764;48.126;11.594;2023-11-19T06:26:40;0.90;;;0.70;;
7444;SDS011;3764;48.126;11.594;2023-11-19T06:29:07;1.13;;;0.70;;
7444;SDS011;3764;48.126;11.594;2023-11-19T06:31:35;1.05;;;0.85;;
7444;SDS011;3764;48.126;11.594;2023-11-19T06:34:03;1.08;;;0.80;;
7444;SDS011;3764;48.126;11.594;2023-11-19T06:36:30;3.38;;;0.77;;
7444;SDS011;3764;48.126;11.594;2023-11-19T06:38:57;0.80;;;0.70;;
7444;SDS011;3764;48.126;11.594;2023-11-19T06:41:24;1.27;;;0.73;;
7444;SDS011;3764;48.126;11.594;2023-11-19T06:43:51;0.77;;;0.63;;
7444;SDS011;3764;48.126;11.594;2023-11-19T06:46:18;0.70;;;0.50;;
7444;SDS011;3764;48.126;11.594;2023-11-19T06:48:47;0.80;;;0.60;;
7444;SDS011;3764;48.126;11.594;2023-11-19T06:51:14;0.90;;;0.70;;
7444;SDS011;3764;48.126;11.594;2023-11-19T06:53:42;0.80;;;0.50;;
7444;SDS011;3764;48.126;11.594;2023-11-19T06:56:17;0.90;;;0.60;;
7444;SDS011;3764;48.126;11.594;2023-11-19T06:58:45;0.85;;;0.77;;
7444;SDS011;3764;48.126;11.594;2023-11-19T07:01:13;2.47;;;0.70;;
7444;SDS011;3764;48.126;11.594;2023-11-19T07:03:40;0.90;;;0.70;;
7444;SDS011;3764;48.126;11.594;2023-11-19T07:06:08;0.90;;;0.70;;
7444;SDS011;3764;48.126;11.594;2023-11-19T07:08:38;0.73;;;0.50;;
7444;SDS011;3764;48.126;11.594;2023-11-19T07:11:05;0.75;;;0.50;;
7444;SDS011;3764;48.126;11.594;2023-11-19T07:13:35;0.80;;;0.65;;
7444;SDS011;3764;48.126;11.594;2023-11-19T07:16:02;1.55;;;0.70;;
7444;SDS011;3764;48.126;11.594;2023-11-19T07:18:30;1.33;;;0.68;;
7444;SDS011;3764;48.126;11.594;2023-11-19T07:20:57;1.23;;;0.60;;
7444;SDS011;3764;48.126;11.594;2023-11-19T07:23:26;0.80;;;0.60;;
7444;SDS011;3764;48.126;11.594;2023-11-19T07:25:53;0.80;;;0.57;;
7444;SDS011;3764;48.126;11.594;2023-11-19T07:28:20;2.97;;;0.70;;
7444;SDS011;3764;48.126;11.594;2023-11-19T07:30:48;0.75;;;0.50;;
7444;SDS011;3764;48.126;11.594;2023-11-19T07:33:15;0.90;;;0.60;;
7444;SDS011;3764;48.126;11.594;2023-11-19T07:35:42;0.80;;;0.60;;
7444;SDS011;3764;48.126;11.594;2023-11-19T07:38:09;0.77;;;0.50;;
7444;SDS011;3764;48.126;11.594;2023-11-19T07:40:38;0.70;;;0.50;;
7444;SDS011;3764;48.126;11.594;2023-11-19T07:43:05;1.00;;;0.60;;
7444;SDS011;3764;48.126;11.594;2023-11-19T07:45:32;0.93;;;0.60;;
7444;SDS011;3764;48.126;11.594;2023-11-19T07:48:00;0.80;;;0.60;;
7444;SDS011;3764;48.126;11.594;2023-11-19T07:50:27;0.90;;;0.60;;
7444;SDS011;3764;48.126;11.594;2023-11-19T07:52:56;1.00;;;0.65;;
7444;SDS011;3764;48.126;11.594;2023-11-19T07:55:23;0.90;;;0.60;;
7444;SDS011;3764;48.126;11.594;2023-11-19T07:57:52;1.05;;;0.50;;
7444;SDS011;3764;48.126;11.594;2023-11-19T08:00:19;0.85;;;0.50;;
7444;SDS011;3764;48.126;11.594;2023-11-19T08:02:46;1.00;;;0.60;;
7444;SDS011;3764;48.126;11.594;2023-11-19T08:05:15;0.85;;;0.52;;
7444;SDS011;3764;48.126;11.594;2023-11-19T08:07:42;1.00;;;0.70;;
7444;SDS011;3764;48.126;11.594;2023-11-19T08:10:09;0.80;;;0.60;;
7444;SDS011;3764;48.126;11.594;2023-11-19T08:12:36;0.80;;;0.70;;
7444;SDS011;3764;48.126;11.594;2023-11-19T08:15:05;1.00;;;0.60;;
7444;SDS011;3764;48.126;11.594;2023-11-19T08:17:34;0.77;;;0.57;;
7444;SDS011;3764;48.126;11.594;2023-11-19T08:20:01;1.00;;;0.60;;
7444;SDS011;3764;48.126;11.594;2023-11-19T08:22:30;1.30;;;0.80;;
7444;SDS011;3764;48.126;11.594;2023-11-19T08:24:57;0.90;;;0.70;;
7444;SDS011;3764;48.126;11.594;2023-11-19T08:27:24;1.23;;;0.60;;
7444;SDS011;3764;48.126;11.594;2023-11-19T08:29:53;1.00;;;0.70;;
7444;SDS011;3764;48.126;11.594;2023-11-19T08:32:22;0.80;;;0.60;;
7444;SDS011;3764;48.126;11.594;2023-11-19T08:34:49;0.80;;;0.60;;
7444;SDS011;3764;48.126;11.594;2023-11-19T08:37:16;0.80;;;0.60;;
7444;SDS011;3764;48.126;11.594;2023-11-19T08:39:46;1.17;;;0.60;;
7444;SDS011;3764;48.126;11.594;2023-11-19T08:42:13;3.20;;;2.40;;
7444;SDS011;3764;48.126;11.594;2023-11-19T08:44:41;1.00;;;0.70;;
7444;SDS011;3764;48.126;11.594;2023-11-19T08:47:09;1.10;;;0.95;;
7444;SDS011;3764;48.126;11.594;2023-11-19T08:49:37;1.10;;;0.80;;
7444;SDS011;3764;48.126;11.594;2023-11-19T08:52:05;0.90;;;0.70;;
7444;SDS011;3764;48.126;11.594;2023-11-19T08:54:33;1.10;;;0.80;;
7444;SDS011;3764;48.126;11.594;2023-11-19T08:57:00;0.93;;;0.63;;
7444;SDS011;3764;48.126;11.594;2023-11-19T08:59:28;1.83;;;0.70;;
7444;SDS011;3764;48.126;11.594;2023-11-19T09:01:55;1.30;;;0.80;;
7444;SDS011;3764;48.126;11.594;2023-11-19T09:04:22;1.83;;;0.80;;
7444;SDS011;3764;48.126;11.594;2023-11-19T09:06:51;1.00;;;0.80;;
7444;SDS011;3764;48.126;11.594;2023-11-19T09:09:18;0.80;;;0.60;;
7444;SDS011;3764;48.126;11.594;2023-11-19T09:11:45;2.22;;;0.88;;
7444;SDS011;3764;48.126;11.594;2023-11-19T09:14:12;1.65;;;1.00;;
7444;SDS011;3764;48.126;11.594;2023-11-19T09:16:39;1.20;;;0.80;;
7444;SDS011;3764;48.126;11.594;2023-11-19T09:19:06;1.45;;;0.90;;
7444;SDS011;3764;48.126;11.594;2023-11-19T09:21:33;1.58;;;0.70;;
7444;SDS011;3764;48.126;11.594;2023-11-19T09:24:05;1.10;;;1.00;;
7444;SDS011;3764;48.126;11.594;2023-11-19T09:26:32;1.00;;;0.77;;
7444;SDS011;3764;48.126;11.594;2023-11-19T09:29:01;0.90;;;0.70;;
7444;SDS011;3764;48.126;11.594;2023-11-19T09:31:28;0.95;;;0.60;;
7444;SDS011;3764;48.126;11.594;2023-11-19T09:33:55;1.05;;;0.88;;
7444;SDS011;3764;48.126;11.594;2023-11-19T09:36:22;0.93;;;0.70;;
7444;SDS011;3764;48.126;11.594;2023-11-19T09:38:49;4.68;;;3.10;;
7444;SDS011;3764;48.126;11.594;2023-11-19T09:41:18;1.00;;;0.80;;
7444;SDS011;3764;48.126;11.594;2023-11-19T09:43:45;0.90;;;0.60;;
7444;SDS011;3764;48.126;11.594;2023-11-19T09:46:13;1.20;;;0.70;;
7444;SDS011;3764;48.126;11.594;2023-11-19T09:48:42;1.40;;;0.90;;
7444;SDS011;3764;48.126;11.594;2023-11-19T09:51:11;0.90;;;0.70;;
7444;SDS011;3764;48.126;11.594;2023-11-19T09:53:38;1.13;;;0.80;;
7444;SDS011;3764;48.126;11.594;2023-11-19T09:56:06;0.90;;;0.70;;
7444;SDS011;3764;48.126;11.594;2023-11-19T09:58:35;1.92;;;0.90;;
7444;SDS011;3764;48.126;11.594;2023-11-19T10:01:02;1.17;;;0.80;;
7444;SDS011;3764;48.126;11.594;2023-11-19T10:03:37;1.45;;;0.80;;
7444;SDS011;3764;48.126;11.594;2023-11-19T10:06:06;1.30;;;0.90;;
7444;SDS011;3764;48.126;11.594;2023-11-19T10:08:34;1.15;;;0.70;;
7444;SDS011;3764;48.126;11.594;2023-11-19T10:11:04;0.95;;;0.80;;
7444;SDS011;3764;48.126;11.594;2023-11-19T10:13:32;0.95;;;0.80;;
7444;SDS011;3764;48.126;11.594;2023-11-19T10:16:04;4.28;;;0.90;;
7444;SDS011;3764;48.126;11.594;2023-11-19T10:18:34;0.88;;;0.68;;
7444;SDS011;3764;48.126;11.594;2023-11-19T10:21:03;1.75;;;0.80;;
7444;SDS011;3764;48.126;11.594;2023-11-19T10:23:46;0.98;;;0.75;;
7444;SDS011;3764;48.126;11.594;2023-11-19T10:26:15;1.00;;;0.90;;
7444;SDS011;3764;48.126;11.594;2023-11-19T10:28:45;1.05;;;0.75;;
7444;SDS011;3764;48.126;11.594;2023-11-19T10:31:12;0.90;;;0.60;;
7444;SDS011;3764;48.126;11.594;2023-11-19T10:33:40;1.30;;;0.82;;
7444;SDS011;3764;48.126;11.594;2023-11-19T10:36:07;1.10;;;0.80;;
7444;SDS011;3764;48.126;11.594;2023-11-19T10:38:35;1.40;;;1.00;;
7444;SDS011;3764;48.126;11.594;2023-11-19T10:41:02;1.00;;;0.70;;
7444;SDS011;3764;48.126;11.594;2023-11-19T10:43:30;1.65;;;1.17;;
7444;SDS011;3764;48.126;11.594;2023-11-19T10:46:11;1.30;;;0.80;;
7444;SDS011;3764;48.126;11.594;2023-11-19T10:48:39;1.27;;;0.88;;
7444;SDS011;3764;48.126;11.594;2023-11-19T10:51:07;0.90;;;0.70;;
7444;SDS011;3764;48.126;11.594;2023-11-19T10:53:36;1.77;;;1.27;;
7444;SDS011;3764;48.126;11.594;2023-11-19T10:56:05;1.98;;;1.10;;
7444;SDS011;3764;48.126;11.594;2023-11-19T10:58:38;1.23;;;0.98;;
7444;SDS011;3764;48.126;11.594;2023-11-19T11:01:13;1.00;;;0.82;;
7444;SDS011;3764;48.126;11.594;2023-11-19T11:03:45;1.00;;;0.70;;
7444;SDS011;3764;48.126;11.594;2023-11-19T11:06:15;1.08;;;0.80;;
7444;SDS011;3764;48.126;11.594;2023-11-19T11:08:42;1.15;;;0.68;;
7444;SDS011;3764;48.126;11.594;2023-11-19T11:11:09;0.90;;;0.77;;
7444;SDS011;3764;48.126;11.594;2023-11-19T11:13:42;0.80;;;0.60;;
7444;SDS011;3764;48.126;11.594;2023-11-19T11:16:10;1.00;;;0.60;;
7444;SDS011;3764;48.126;11.594;2023-11-19T11:18:40;1.00;;;0.60;;
7444;SDS011;3764;48.126;11.594;2023-11-19T11:21:07;0.80;;;0.60;;
7444;SDS011;3764;48.126;11.594;2023-11-19T11:23:42;0.82;;;0.60;;
7444;SDS011;3764;48.126;11.594;2023-11-19T11:26:32;1.13;;;0.70;;
7444;SDS011;3764;48.126;11.594;2023-11-19T11:29:11;2.30;;;0.60;;
7444;SDS011;3764;48.126;11.594;2023-11-19T11:31:48;1.55;;;0.70;;
7444;SDS011;3764;48.126;11.594;2023-11-19T11:34:26;0.98;;;0.60;;
7444;SDS011;3764;48.126;11.594;2023-11-19T11:37:09;1.30;;;1.10;;
7444;SDS011;3764;48.126;11.594;2023-11-19T11:39:44;4.40;;;3.08;;
7444;SDS011;3764;48.126;11.594;2023-11-19T11:45:03;1.27;;;0.80;;
7444;SDS011;3764;48.126;11.594;2023-11-19T11:50:35;0.88;;;0.68;;
7444;SDS011;3764;48.126;11.594;2023-11-19T11:53:17;1.25;;;0.80;;
7444;SDS011;3764;48.126;11.594;2023-11-19T11:55:54;2.65;;;0.90;;
7444;SDS011;3764;48.126;11.594;2023-11-19T11:58:34;1.75;;;0.77;;
7444;SDS011;3764;48.126;11.594;2023-11-19T12:01:04;0.90;;;0.55;;
7444;SDS011;3764;48.126;11.594;2023-11-19T12:03:33;2.30;;;1.00;;
7444;SDS011;3764;48.126;11.594;2023-11-19T12:06:00;1.67;;;0.60;;
7444;SDS011;3764;48.126;11.594;2023-11-19T12:08:29;1.20;;;0.70;;
7444;SDS011;3764;48.126;11.594;2023-11-19T12:10:57;0.85;;;0.60;;
7444;SDS011;3764;48.126;11.594;2023-11-19T12:13:27;1.52;;;1.30;;
7444;SDS011;3764;48.126;11.594;2023-11-19T12:16:10;0.90;;;0.70;;
7444;SDS011;3764;48.126;11.594;2023-11-19T12:18:39;1.00;;;0.60;;
7444;SDS011;3764;48.126;11.594;2023-11-19T12:21:08;0.80;;;0.50;;
7444;SDS011;3764;48.126;11.594;2023-11-19T12:23:45;1.23;;;0.70;;
7444;SDS011;3764;48.126;11.594;2023-11-19T12:29:01;0.95;;;0.70;;
7444;SDS011;3764;48.126;11.594;2023-11-19T12:31:31;2.30;;;0.60;;
7444;SDS011;3764;48.126;11.594;2023-11-19T12:34:06;1.77;;;0.80;;
7444;SDS011;3764;48.126;11.594;2023-11-19T12:36:38;2.20;;;1.27;;
7444;SDS011;3764;48.126;11.594;2023-11-19T12:39:07;1.55;;;0.98;;
7444;SDS011;3764;48.126;11.594;2023-11-19T12:41:48;1.20;;;0.70;;
7444;SDS011;3764;48.126;11.594;2023-11-19T12:44:16;1.50;;;0.70;;
7444;SDS011;3764;48.126;11.594;2023-11-19T12:46:43;1.23;;;0.80;;
7444;SDS011;3764;48.126;11.594;2023-11-19T12:49:12;1.20;;;0.80;;
7444;SDS011;3764;48.126;11.594;2023-11-19T12:51:39;1.00;;;0.73;;
7444;SDS011;3764;48.126;11.594;2023-11-19T12:54:06;1.52;;;0.70;;
7444;SDS011;3764;48.126;11.594;2023-11-19T12:56:33;0.90;;;0.70;;
7444;SDS011;3764;48.126;11.594;2023-11-19T12:59:09;1.30;;;0.90;;
7444;SDS011;3764;48.126;11.594;2023-11-19T13:01:38;0.90;;;0.70;;
7444;SDS011;3764;48.126;11.594;2023-11-19T13:06:55;1.00;;;0.52;;
7444;SDS011;3764;48.126;11.594;2023-11-19T13:09:23;1.30;;;0.70;;
7444;SDS011;3764;48.126;11.594;2023-11-19T13:11:51;0.90;;;0.60;;
7444;SDS011;3764;48.126;11.594;2023-11-19T13:14:19;1.75;;;0.60;;
7444;SDS011;3764;48.126;11.594;2023-11-19T13:16:47;1.17;;;0.80;;
7444;SDS011;3764;48.126;11.594;2023-11-19T13:19:14;2.72;;;1.40;;
7444;SDS011;3764;48.126;11.594;2023-11-19T13:21:45;1.25;;;0.85;;
7444;SDS011;3764;48.126;11.594;2023-11-19T13:24:13;6.00;;;3.50;;
7444;SDS011;3764;48.126;11.594;2023-11-19T13:26:40;1.73;;;1.45;;
7444;SDS011;3764;48.126;11.594;2023-11-19T13:29:07;1.08;;;0.70;;
7444;SDS011;3764;48.126;11.594;2023-11-19T13:31:35;2.65;;;0.90;;
7444;SDS011;3764;48.126;11.594;2023-11-19T13:34:03;1.55;;;0.90;;
7444;SDS011;3764;48.126;11.594;2023-11-19T13:36:32;2.30;;;1.55;;
7444;SDS011;3764;48.126;11.594;2023-11-19T13:39:01;2.17;;;0.80;;
7444;SDS011;3764;48.126;11.594;2023-11-19T13:41:28;2.63;;;0.80;;
7444;SDS011;3764;48.126;11.594;2023-11-19T13:43:55;1.00;;;0.80;;
7444;SDS011;3764;48.126;11.594;2023-11-19T13:46:22;1.45;;;0.80;;
7444;SDS011;3764;48.126;11.594;2023-11-19T13:48:49;1.30;;;0.70;;
7444;SDS011;3764;48.126;11.594;2023-11-19T13:51:16;0.95;;;0.65;;
7444;SDS011;3764;48.126;11.594;2023-11-19T13:53:43;1.33;;;0.80;;
7444;SDS011;3764;48.126;11.594;2023-11-19T13:56:12;1.20;;;0.70;;
7444;SDS011;3764;48.126;11.594;2023-11-19T13:58:39;1.00;;;0.70;;
7444;SDS011;3764;48.126;11.594;2023-11-19T14:01:06;0.90;;;0.70;;
7444;SDS011;3764;48.126;11.594;2023-11-19T14:03:39;1.25;;;0.75;;
7444;SDS011;3764;48.126;11.594;2023-11-19T14:06:07;1.10;;;0.70;;
7444;SDS011;3764;48.126;11.594;2023-11-19T14:08:34;1.30;;;0.80;;
7444;SDS011;3764;48.126;11.594;2023-11-19T14:11:01;1.00;;;0.70;;
7444;SDS011;3764;48.126;11.594;2023-11-19T14:13:30;1.00;;;0.77;;
7444;SDS011;3764;48.126;11.594;2023-11-19T14:15:57;3.78;;;0.80;;
7444;SDS011;3764;48.126;11.594;2023-11-19T14:18:24;1.30;;;0.75;;
7444;SDS011;3764;48.126;11.594;2023-11-19T14:20:51;1.50;;;0.68;;
7444;SDS011;3764;48.126;11.594;2023-11-19T14:23:19;2.10;;;0.90;;
7444;SDS011;3764;48.126;11.594;2023-11-19T14:25:46;1.52;;;1.08;;
7444;SDS011;3764;48.126;11.594;2023-11-19T14:28:15;1.05;;;0.80;;
7444;SDS011;3764;48.126;11.594;2023-11-19T14:30:43;2.22;;;0.70;;
7444;SDS011;3764;48.126;11.594;2023-11-19T14:33:11;1.63;;;1.10;;
7444;SDS011;3764;48.126;11.594;2023-11-19T14:35:38;1.52;;;0.90;;
7444;SDS011;3764;48.126;11.594;2023-11-19T14:38:05;1.20;;;0.90;;
7444;SDS011;3764;48.126;11.594;2023-11-19T14:40:35;1.00;;;0.70;;
7444;SDS011;3764;48.126;11.594;2023-11-19T14:43:02;1.17;;;0.90;;
7444;SDS011;3764;48.126;11.594;2023-11-19T14:45:29;2.30;;;0.70;;
7444;SDS011;3764;48.126;11.594;2023-11-19T14:47:57;1.10;;;0.80;;
7444;SDS011;3764;48.126;11.594;2023-11-19T14:50:24;1.10;;;0.80;;
7444;SDS011;3764;48.126;11.594;2023-11-19T14:52:53;1.15;;;0.80;;
7444;SDS011;3764;48.126;11.594;2023-11-19T14:55:20;1.77;;;0.88;;
7444;SDS011;3764;48.126;11.594;2023-11-19T14:57:47;0.90;;;0.80;;
7444;SDS011;3764;48.126;11.594;2023-11-19T15:00:16;1.10;;;0.70;;
7444;SDS011;3764;48.126;11.594;2023-11-19T15:02:43;1.20;;;0.60;;
7444;SDS011;3764;48.126;11.594;2023-11-19T15:05:11;1.77;;;0.70;;
7444;SDS011;3764;48.126;11.594;2023-11-19T15:07:39;1.00;;;0.70;;
7444;SDS011;3764;48.126;11.594;2023-11-19T15:10:06;1.20;;;0.70;;
7444;SDS011;3764;48.126;11.594;2023-11-19T15:12:35;1.27;;;0.63;;
7444;SDS011;3764;48.126;11.594;2023-11-19T15:15:06;2.85;;;1.08;;
7444;SDS011;3764;48.126;11.594;2023-11-19T15:17:34;1.10;;;0.80;;
7444;SDS011;3764;48.126;11.594;2023-11-19T15:20:01;1.30;;;0.80;;
7444;SDS011;3764;48.126;11.594;2023-11-19T15:22:30;1.10;;;0.60;;